Terminal Aerodrome Forecast
Issued by NWS

Home | Current Version | Previous Version | Graphics & Text | Print | Product List | Glossary On
Versions: 1 2 3 4 5 6 7 8 9 10 11 12 13 14 15
000
FTUS43 KMPX 201700
TAFRNH
TAF
KRNH 201739Z 2018/2118 09004KT P6SM SCT250
     FM210300 06003KT P6SM SCT100 BKN250
     FM210800 VRB02KT 5SM BR FEW060 BKN100 PROB30 2108/2112 2SM
      -SHRA BR BKN060
     FM211300 30005KT P6SM SCT060 BKN100
     FM211600 31013G20KT P6SM SCT120=

USA.gov is the U.S. government's official web portal to all federal, state and local government web resources and services.